createdAt,value
2023-04-17T00:00:05.187Z,98209.81
2023-04-17T00:02:33.722Z,98212.88
2023-04-17T00:05:01.307Z,98209.41
2023-04-17T00:07:28.931Z,98214.50
2023-04-17T00:09:56.427Z,98209.41
2023-04-17T00:12:23.894Z,98211.44
2023-04-17T00:14:51.301Z,98207.16
2023-04-17T00:17:18.914Z,98208.38
2023-04-17T00:19:46.828Z,98210.63
2023-04-17T00:22:14.266Z,98208.53
2023-04-17T00:24:41.692Z,98208.59
2023-04-17T00:27:10.196Z,98211.03
2023-04-17T00:29:37.793Z,98210.63
2023-04-17T00:32:05.761Z,98212.44
2023-04-17T00:34:33.755Z,98212.06
2023-04-17T00:37:01.252Z,98210.59
2023-04-17T00:39:28.665Z,98221.84
2023-04-17T00:41:57.557Z,98214.72
2023-04-17T00:44:25.110Z,98212.22
2023-04-17T00:46:52.979Z,98206.94
2023-04-17T00:49:20.813Z,98212.63
2023-04-17T00:51:50.552Z,98215.50
2023-04-17T00:54:19.319Z,98208.59
2023-04-17T00:56:47.001Z,98209.41
2023-04-17T00:59:17.681Z,98214.06
2023-04-17T01:01:45.661Z,98215.28
2023-04-17T01:04:14.003Z,98211.59
2023-04-17T01:06:42.094Z,98210.38
2023-04-17T01:09:10.008Z,98214.88
2023-04-17T01:11:39.384Z,98216.09
2023-04-17T01:14:07.000Z,98217.34
2023-04-17T01:16:35.676Z,98209.97
2023-04-17T01:19:03.279Z,98211.81
2023-04-17T01:21:31.467Z,98214.47
2023-04-17T01:24:03.628Z,98214.25
2023-04-17T01:26:33.009Z,98211.59
2023-04-17T01:29:00.896Z,98212.63
2023-04-17T01:31:30.546Z,98218.34
2023-04-17T01:34:00.775Z,98210.38
2023-04-17T01:36:28.719Z,98213.03
2023-04-17T01:38:56.598Z,98212.63
2023-04-17T01:41:24.408Z,98210.16
2023-04-17T01:43:51.937Z,98223.66
2023-04-17T01:46:19.652Z,98210.38
2023-04-17T01:48:47.115Z,98218.97
2023-04-17T01:51:14.668Z,98217.13
2023-04-17T01:53:42.242Z,98217.94
2023-04-17T01:56:09.843Z,98223.63
2023-04-17T01:58:37.365Z,98219.56
2023-04-17T02:01:05.771Z,98219.78
2023-04-17T02:03:33.329Z,98216.72
2023-04-17T02:06:01.217Z,98222.84
2023-04-17T02:08:29.933Z,98222.44
2023-04-17T02:10:59.389Z,98220.38
2023-04-17T02:13:26.918Z,98217.72
2023-04-17T02:15:54.439Z,98222.44
2023-04-17T02:18:22.207Z,98224.06
2023-04-17T02:20:49.908Z,98226.13
2023-04-17T02:23:17.417Z,98222.66
2023-04-17T02:25:44.927Z,98219.38
2023-04-17T02:28:12.427Z,98218.34
2023-04-17T02:30:40.108Z,98220.41
2023-04-17T02:33:07.713Z,98220.19
2023-04-17T02:35:35.560Z,98222.66
2023-04-17T02:38:03.110Z,98219.78
2023-04-17T02:40:33.575Z,98218.97
2023-04-17T02:43:03.130Z,98214.88
2023-04-17T02:45:31.268Z,98215.09
2023-04-17T02:47:58.917Z,98214.88
2023-04-17T02:50:26.672Z,98218.13
2023-04-17T02:53:06.205Z,98219.56
2023-04-17T02:55:33.971Z,98223.25
2023-04-17T02:58:01.738Z,98213.03
2023-04-17T03:00:29.371Z,98221.81
2023-04-17T03:02:57.250Z,98224.47
2023-04-17T03:05:24.956Z,98223.03
2023-04-17T03:07:54.907Z,98211.81
2023-04-17T03:10:25.139Z,98219.78
2023-04-17T03:12:53.275Z,98212.41
2023-04-17T03:15:20.896Z,98209.97
2023-04-17T03:17:48.728Z,98206.72
2023-04-17T03:20:16.505Z,98215.69
2023-04-17T03:22:44.003Z,98219.97
2023-04-17T03:25:11.707Z,98217.94
2023-04-17T03:27:46.170Z,98221.41
2023-04-17T03:30:15.092Z,98220.00
2023-04-17T03:32:46.776Z,98218.75
2023-04-17T03:35:14.415Z,98217.75
2023-04-17T03:37:42.467Z,98223.47
2023-04-17T03:40:12.388Z,98220.81
2023-04-17T03:42:39.996Z,98225.69
2023-04-17T03:45:08.260Z,98224.69
2023-04-17T03:47:35.794Z,98224.47
2023-04-17T03:50:04.807Z,98230.19
2023-04-17T03:52:37.164Z,98228.78
2023-04-17T03:55:06.732Z,98227.53
2023-04-17T03:57:34.200Z,98224.88
2023-04-17T04:00:02.197Z,98225.66
2023-04-17T04:02:46.848Z,98226.94
2023-04-17T04:05:19.073Z,98226.50
2023-04-17T04:07:47.086Z,98233.84
2023-04-17T04:10:21.579Z,98235.91
2023-04-17T04:12:49.082Z,98233.84
2023-04-17T04:15:16.784Z,98242.00
2023-04-17T04:17:46.812Z,98238.34
2023-04-17T04:20:14.664Z,98234.69
2023-04-17T04:22:44.777Z,98247.31
2023-04-17T04:25:12.865Z,98241.19
2023-04-17T04:27:53.087Z,98241.59
2023-04-17T04:30:25.659Z,98233.66
2023-04-17T04:33:01.329Z,98241.81
2023-04-17T04:35:30.313Z,98248.97
2023-04-17T04:38:02.410Z,98254.69
2023-04-17T04:40:38.401Z,98245.91
2023-04-17T04:43:07.680Z,98248.16
2023-04-17T04:45:40.297Z,98259.19
2023-04-17T04:48:07.917Z,98256.56
2023-04-17T04:50:35.598Z,98253.09
2023-04-17T04:53:03.143Z,98255.72
2023-04-17T04:55:42.629Z,98255.31
2023-04-17T04:58:10.165Z,98252.66
2023-04-17T05:00:39.286Z,98252.28
2023-04-17T05:03:07.899Z,98251.88
2023-04-17T05:05:36.104Z,98255.34
2023-04-17T05:08:04.604Z,98258.81
2023-04-17T05:10:34.972Z,98258.41
2023-04-17T05:13:05.024Z,98270.88
2023-04-17T05:15:32.969Z,98264.75
2023-04-17T05:18:01.303Z,98263.13
2023-04-17T05:20:31.074Z,98260.66
2023-04-17T05:22:59.260Z,98259.66
2023-04-17T05:25:26.802Z,98266.19
2023-04-17T05:27:56.957Z,98270.88
2023-04-17T05:30:24.621Z,98272.31
2023-04-17T05:33:05.556Z,98273.34
2023-04-17T05:35:54.063Z,98270.28
2023-04-17T05:38:23.978Z,98273.13
2023-04-17T05:40:53.353Z,98272.72
2023-04-17T05:43:20.858Z,98273.78
2023-04-17T05:45:49.275Z,98273.97
2023-04-17T05:48:16.869Z,98272.13
2023-04-17T05:50:45.737Z,98268.88
2023-04-17T05:53:13.479Z,98273.97
2023-04-17T05:55:49.100Z,98272.34
2023-04-17T05:58:23.732Z,98277.47
2023-04-17T06:00:54.927Z,98279.69
2023-04-17T06:03:24.194Z,98274.56
2023-04-17T06:05:58.935Z,98281.50
2023-04-17T06:08:28.234Z,98276.59
2023-04-17T06:10:56.400Z,98275.97
2023-04-17T06:13:24.723Z,98279.44
2023-04-17T06:15:52.980Z,98276.78
2023-04-17T06:18:20.490Z,98286.94
2023-04-17T06:20:48.315Z,98294.22
2023-04-17T06:23:15.833Z,98289.50
2023-04-17T06:25:43.286Z,98297.03
2023-04-17T06:28:10.873Z,98298.75
2023-04-17T06:30:38.553Z,98304.31
2023-04-17T06:33:08.051Z,98303.97
2023-04-17T06:35:37.879Z,98304.31
2023-04-17T06:38:17.172Z,98317.16
2023-04-17T06:40:45.071Z,98319.06
2023-04-17T06:43:12.994Z,98324.13
2023-04-17T06:45:43.084Z,98328.69
2023-04-17T06:48:10.746Z,98328.84
2023-04-17T06:50:39.862Z,98328.41
2023-04-17T06:53:07.411Z,98341.84
2023-04-17T06:55:34.944Z,98342.63
2023-04-17T06:58:02.453Z,98343.31
2023-04-17T07:00:29.952Z,98347.13
2023-04-17T07:02:57.800Z,98346.19
2023-04-17T07:05:25.569Z,98352.13
2023-04-17T07:07:52.989Z,98354.50
2023-04-17T07:10:20.680Z,98363.00
2023-04-17T07:12:48.187Z,98360.25
2023-04-17T07:15:16.627Z,98359.59
2023-04-17T07:17:44.240Z,98373.22
2023-04-17T07:20:12.328Z,98374.69
2023-04-17T07:22:40.027Z,98381.06
2023-04-17T07:25:08.104Z,98375.91
2023-04-17T07:27:38.406Z,98381.19
2023-04-17T07:30:08.288Z,98383.47
2023-04-17T07:32:37.068Z,98386.31
2023-04-17T07:35:04.998Z,98383.09
2023-04-17T07:37:34.551Z,98383.66
2023-04-17T07:40:02.269Z,98386.56
2023-04-17T07:42:29.684Z,98389.34
2023-04-17T07:44:57.556Z,98391.06
2023-04-17T07:47:25.089Z,98391.72
2023-04-17T07:49:52.657Z,98389.31
2023-04-17T07:52:20.139Z,98391.72
2023-04-17T07:54:47.883Z,98397.59
2023-04-17T07:57:15.691Z,98394.94
2023-04-17T07:59:43.181Z,98397.47
2023-04-17T08:02:11.201Z,98403.78
2023-04-17T08:04:40.481Z,98410.22
2023-04-17T08:07:10.817Z,98412.25
2023-04-17T08:09:40.239Z,98411.84
2023-04-17T08:12:08.589Z,98412.25
2023-04-17T08:14:36.348Z,98413.00
2023-04-17T08:17:04.347Z,98411.50
2023-04-17T08:19:32.071Z,98419.50
2023-04-17T08:22:04.185Z,98423.84
2023-04-17T08:24:32.033Z,98430.13
2023-04-17T08:26:59.574Z,98421.53
2023-04-17T08:29:27.268Z,98424.94
2023-04-17T08:32:06.860Z,98424.00
2023-04-17T08:34:40.739Z,98438.31
2023-04-17T08:37:08.207Z,98435.75
2023-04-17T08:39:35.806Z,98441.94
2023-04-17T08:42:08.000Z,98444.16
2023-04-17T08:44:36.138Z,98446.09
2023-04-17T08:47:04.817Z,98451.06
2023-04-17T08:49:35.581Z,98446.91
2023-04-17T08:52:08.182Z,98454.16
2023-04-17T08:54:36.675Z,98455.84
2023-04-17T08:57:05.514Z,98458.13
2023-04-17T08:59:33.508Z,98459.56
2023-04-17T09:02:08.827Z,98466.38
2023-04-17T09:04:47.252Z,98466.28
2023-04-17T09:07:18.489Z,98469.09
2023-04-17T09:09:51.248Z,98458.47
2023-04-17T09:12:23.139Z,98462.81
2023-04-17T09:14:51.058Z,98467.34
2023-04-17T09:17:20.353Z,98473.94
2023-04-17T09:20:14.526Z,98466.97
2023-04-17T09:22:42.410Z,98461.53
2023-04-17T09:25:17.887Z,98467.72
2023-04-17T09:27:46.147Z,98470.03
2023-04-17T09:30:13.937Z,98460.69
2023-04-17T09:32:41.632Z,98467.88
2023-04-17T09:35:09.664Z,98465.34
2023-04-17T09:37:54.593Z,98467.59
2023-04-17T09:40:23.657Z,98466.75
2023-04-17T09:42:57.009Z,98465.81
2023-04-17T09:45:25.810Z,98468.03
2023-04-17T09:47:56.721Z,98462.97
2023-04-17T09:50:27.336Z,98447.22
2023-04-17T09:52:56.256Z,98457.84
2023-04-17T09:55:26.822Z,98460.28
2023-04-17T09:57:55.709Z,98458.09
2023-04-17T10:00:27.234Z,98463.88
2023-04-17T10:02:57.019Z,98465.06
2023-04-17T10:05:31.615Z,98469.00
2023-04-17T10:07:59.241Z,98465.56
2023-04-17T10:10:32.482Z,98459.84
2023-04-17T10:13:08.319Z,98459.94
2023-04-17T10:15:38.988Z,98459.72
2023-04-17T10:18:24.061Z,98462.75
2023-04-17T10:20:53.783Z,98456.59
2023-04-17T10:23:36.626Z,98459.44
2023-04-17T10:26:25.874Z,98464.03
2023-04-17T10:28:54.710Z,98459.16
2023-04-17T10:31:25.609Z,98459.63
2023-04-17T10:33:54.545Z,98464.97
2023-04-17T10:36:49.624Z,98462.22
2023-04-17T10:39:20.649Z,98458.00
2023-04-17T10:42:06.757Z,98459.03
2023-04-17T10:44:35.438Z,98451.50
2023-04-17T10:47:16.113Z,98451.22
2023-04-17T10:50:00.713Z,98448.44
2023-04-17T10:52:40.594Z,98450.69
2023-04-17T10:55:10.997Z,98448.66
2023-04-17T10:57:58.845Z,98452.88
2023-04-17T11:00:32.587Z,98455.19
2023-04-17T11:03:02.030Z,98458.16
2023-04-17T11:05:31.539Z,98455.28
2023-04-17T11:07:59.624Z,98458.84
2023-04-17T11:10:27.432Z,98451.09
2023-04-17T11:12:56.745Z,98452.78
2023-04-17T11:15:31.489Z,98457.84
2023-04-17T11:18:01.019Z,98465.25
2023-04-17T11:20:33.045Z,98452.16
2023-04-17T11:23:05.073Z,98466.50
2023-04-17T11:25:34.604Z,98459.19
2023-04-17T11:28:05.976Z,98457.56
2023-04-17T11:30:35.456Z,98463.81
2023-04-17T11:33:06.138Z,98465.09
2023-04-17T11:35:38.617Z,98468.50
2023-04-17T11:38:23.394Z,98469.34
2023-04-17T11:40:56.626Z,98472.00
2023-04-17T11:43:24.144Z,98473.28
2023-04-17T11:46:02.113Z,98463.97
2023-04-17T11:48:32.367Z,98475.72
2023-04-17T11:51:01.554Z,98478.84
2023-04-17T11:53:29.643Z,98474.28
2023-04-17T11:56:13.280Z,98471.63
2023-04-17T11:58:54.240Z,98476.38
2023-04-17T12:01:26.596Z,98477.66
2023-04-17T12:03:58.154Z,98474.66
2023-04-17T12:06:37.186Z,98479.19
2023-04-17T12:09:06.593Z,98473.28
2023-04-17T12:11:35.227Z,98477.00
2023-04-17T12:14:05.202Z,98480.13
2023-04-17T12:16:32.894Z,98477.94
2023-04-17T12:19:00.531Z,98474.25
2023-04-17T12:21:28.051Z,98472.50
2023-04-17T12:23:55.712Z,98483.47
2023-04-17T12:26:25.030Z,98480.56
2023-04-17T12:28:52.683Z,98485.22
2023-04-17T12:31:20.146Z,98482.84
2023-04-17T12:33:47.942Z,98481.59
2023-04-17T12:36:15.586Z,98491.94
2023-04-17T12:38:43.207Z,98481.78
2023-04-17T12:41:10.889Z,98483.38
2023-04-17T12:43:38.388Z,98479.50
2023-04-17T12:46:06.169Z,98481.59
2023-04-17T12:48:58.406Z,98476.97
2023-04-17T12:51:29.841Z,98485.97
2023-04-17T12:53:57.484Z,98484.16
2023-04-17T12:56:25.006Z,98494.09
2023-04-17T12:58:52.465Z,98495.00
2023-04-17T13:01:20.114Z,98494.13
2023-04-17T13:03:47.808Z,98495.00
2023-04-17T13:06:16.940Z,98494.00
2023-04-17T13:08:44.422Z,98495.88
2023-04-17T13:11:11.912Z,98490.63
2023-04-17T13:13:39.366Z,98495.34
2023-04-17T13:16:07.398Z,98497.75
2023-04-17T13:18:34.888Z,98504.94
2023-04-17T13:21:02.333Z,98496.75
2023-04-17T13:23:29.877Z,98501.63
2023-04-17T13:25:57.299Z,98496.50
2023-04-17T13:28:24.757Z,98492.19
2023-04-17T13:30:53.195Z,98495.59
2023-04-17T13:33:20.705Z,98503.66
2023-04-17T13:35:48.379Z,98499.59
2023-04-17T13:38:16.048Z,98501.22
2023-04-17T13:40:43.537Z,98499.56
2023-04-17T13:43:11.719Z,98496.53
2023-04-17T13:45:39.239Z,98495.28
2023-04-17T13:48:06.953Z,98501.41
2023-04-17T13:50:34.570Z,98502.41
2023-04-17T13:53:02.086Z,98499.75
2023-04-17T13:55:29.654Z,98502.81
2023-04-17T13:57:57.667Z,98500.88
2023-04-17T14:00:25.612Z,98498.75
2023-04-17T14:02:53.289Z,98497.97
2023-04-17T14:05:20.871Z,98498.03
2023-04-17T14:07:48.388Z,98495.06
2023-04-17T14:10:15.866Z,98488.38
2023-04-17T14:12:44.252Z,98485.34
2023-04-17T14:15:13.168Z,98498.50
2023-04-17T14:17:43.367Z,98498.56
2023-04-17T14:20:11.841Z,98497.97
2023-04-17T14:22:39.310Z,98496.69
2023-04-17T14:25:07.316Z,98501.13
2023-04-17T14:27:36.430Z,98492.38
2023-04-17T14:30:04.303Z,98510.06
2023-04-17T14:32:32.053Z,98511.19
2023-04-17T14:34:59.826Z,98516.88
2023-04-17T14:37:28.607Z,98509.72
2023-04-17T14:39:56.101Z,98519.66
2023-04-17T14:42:23.610Z,98514.66
2023-04-17T14:44:51.069Z,98510.69
2023-04-17T14:47:19.372Z,98518.41
2023-04-17T14:49:46.891Z,98511.84
2023-04-17T14:52:14.896Z,98510.88
2023-04-17T14:54:42.368Z,98516.69
2023-04-17T14:57:09.881Z,98510.50
2023-04-17T14:59:37.535Z,98532.84
2023-04-17T15:02:07.765Z,98522.81
2023-04-17T15:04:35.535Z,98520.06
2023-04-17T15:07:04.894Z,98518.25
2023-04-17T15:09:32.395Z,98528.66
2023-04-17T15:12:00.971Z,98520.16
2023-04-17T15:14:30.038Z,98524.63
2023-04-17T15:16:59.101Z,98524.72
2023-04-17T15:19:29.302Z,98521.84
2023-04-17T15:21:56.866Z,98527.53
2023-04-17T15:24:24.351Z,98530.19
2023-04-17T15:26:51.856Z,98527.16
2023-04-17T15:29:19.441Z,98530.69
2023-04-17T15:31:46.880Z,98526.13
2023-04-17T15:34:14.421Z,98534.22
2023-04-17T15:36:42.068Z,98530.25
2023-04-17T15:39:09.663Z,98527.16
2023-04-17T15:41:40.852Z,98533.81
2023-04-17T15:44:08.924Z,98529.75
2023-04-17T15:46:36.740Z,98534.84
2023-04-17T15:49:08.270Z,98526.41
2023-04-17T15:51:36.854Z,98530.78
2023-04-17T15:54:05.179Z,98531.34
2023-04-17T15:56:32.887Z,98526.84
2023-04-17T15:59:00.588Z,98530.63
2023-04-17T16:01:28.827Z,98529.88
2023-04-17T16:03:56.693Z,98533.81
2023-04-17T16:06:24.536Z,98525.16
2023-04-17T16:08:51.994Z,98532.84
2023-04-17T16:11:19.427Z,98535.94
2023-04-17T16:13:46.923Z,98533.59
2023-04-17T16:16:14.445Z,98532.84
2023-04-17T16:18:42.219Z,98533.22
2023-04-17T16:21:12.869Z,98539.34
2023-04-17T16:23:40.818Z,98537.19
2023-04-17T16:26:08.518Z,98545.59
2023-04-17T16:28:36.032Z,98536.16
2023-04-17T16:31:03.578Z,98542.00
2023-04-17T16:33:31.010Z,98537.97
2023-04-17T16:35:58.584Z,98548.66
2023-04-17T16:38:26.158Z,98542.16
2023-04-17T16:40:57.109Z,98541.16
2023-04-17T16:43:25.183Z,98538.50
2023-04-17T16:45:52.717Z,98539.06
2023-04-17T16:48:20.253Z,98544.53
2023-04-17T16:50:48.008Z,98543.53
2023-04-17T16:53:15.685Z,98541.53
2023-04-17T16:55:43.166Z,98544.91
2023-04-17T16:58:10.844Z,98547.09
2023-04-17T17:00:38.468Z,98543.19
2023-04-17T17:03:06.142Z,98549.94
2023-04-17T17:05:33.711Z,98549.59
2023-04-17T17:08:01.245Z,98545.00
2023-04-17T17:10:28.747Z,98547.19
2023-04-17T17:12:56.249Z,98550.78
2023-04-17T17:15:23.831Z,98555.69
2023-04-17T17:17:51.414Z,98556.53
2023-04-17T17:20:19.320Z,98557.69
2023-04-17T17:22:46.829Z,98560.25
2023-04-17T17:25:14.444Z,98556.94
2023-04-17T17:27:42.014Z,98569.56
2023-04-17T17:30:09.903Z,98566.41
2023-04-17T17:32:37.404Z,98567.44
2023-04-17T17:35:05.330Z,98563.78
2023-04-17T17:37:32.852Z,98571.72
2023-04-17T17:40:00.895Z,98567.97
2023-04-17T17:42:28.561Z,98572.72
2023-04-17T17:44:56.119Z,98569.78
2023-04-17T17:47:23.743Z,98567.03
2023-04-17T17:49:51.268Z,98563.19
2023-04-17T17:52:18.722Z,98565.94
2023-04-17T17:54:46.251Z,98566.38
2023-04-17T17:57:13.822Z,98569.56
2023-04-17T17:59:41.322Z,98571.84
2023-04-17T18:02:08.859Z,98562.22
2023-04-17T18:04:36.954Z,98569.75
2023-04-17T18:07:04.480Z,98567.66
2023-04-17T18:09:31.960Z,98574.66
2023-04-17T18:11:59.508Z,98570.28
2023-04-17T18:14:26.926Z,98582.56
2023-04-17T18:16:54.399Z,98582.25
2023-04-17T18:19:22.028Z,98582.72
2023-04-17T18:21:49.588Z,98578.88
2023-04-17T18:24:17.147Z,98582.63
2023-04-17T18:26:44.749Z,98582.91
2023-04-17T18:29:12.267Z,98574.13
2023-04-17T18:31:39.760Z,98585.28
2023-04-17T18:34:07.209Z,98579.53
2023-04-17T18:36:34.633Z,98580.75
2023-04-17T18:39:02.272Z,98587.81
2023-04-17T18:41:29.833Z,98600.44
2023-04-17T18:43:57.357Z,98586.97
2023-04-17T18:46:26.372Z,98600.59
2023-04-17T18:48:53.940Z,98595.66
2023-04-17T18:51:21.542Z,98599.72
2023-04-17T18:53:50.353Z,98600.94
2023-04-17T18:56:17.964Z,98598.19
2023-04-17T18:58:46.203Z,98599.50
2023-04-17T19:01:13.833Z,98593.25
2023-04-17T19:03:41.432Z,98602.38
2023-04-17T19:06:09.142Z,98605.31
2023-04-17T19:08:36.737Z,98602.63
2023-04-17T19:11:04.270Z,98607.81
2023-04-17T19:13:32.050Z,98605.28
2023-04-17T19:15:59.602Z,98609.75
2023-04-17T19:18:27.280Z,98609.16
2023-04-17T19:20:54.773Z,98609.03
2023-04-17T19:23:22.722Z,98602.28
2023-04-17T19:25:56.527Z,98598.16
2023-04-17T19:28:24.528Z,98602.22
2023-04-17T19:30:51.819Z,98600.00
2023-04-17T19:33:20.389Z,98601.47
2023-04-17T19:35:48.106Z,98602.19
2023-04-17T19:38:17.332Z,98608.94
2023-04-17T19:41:15.267Z,98613.16
2023-04-17T19:43:43.871Z,98605.28
2023-04-17T19:46:13.516Z,98603.81
2023-04-17T19:48:43.732Z,98606.47
2023-04-17T19:51:12.513Z,98612.50
2023-04-17T19:53:41.838Z,98615.06
2023-04-17T19:56:10.681Z,98616.88
2023-04-17T19:58:38.831Z,98616.06
2023-04-17T20:01:06.496Z,98620.19
2023-04-17T20:03:35.599Z,98623.19
2023-04-17T20:06:03.602Z,98620.63
2023-04-17T20:08:31.038Z,98628.59
2023-04-17T20:10:58.576Z,98634.50
2023-04-17T20:13:26.383Z,98632.31
2023-04-17T20:15:53.995Z,98635.97
2023-04-17T20:18:21.763Z,98631.69
2023-04-17T20:20:49.428Z,98637.09
2023-04-17T20:23:16.915Z,98628.50
2023-04-17T20:25:44.468Z,98622.97
2023-04-17T20:28:12.011Z,98631.50
2023-04-17T20:30:39.557Z,98629.25
2023-04-17T20:33:07.466Z,98628.16
2023-04-17T20:35:35.111Z,98622.75
2023-04-17T20:38:02.529Z,98620.28
2023-04-17T20:40:30.025Z,98626.41
2023-04-17T20:42:57.568Z,98626.31
2023-04-17T20:45:25.496Z,98623.31
2023-04-17T20:47:57.022Z,98624.50
2023-04-17T20:50:26.129Z,98621.25
2023-04-17T20:52:53.577Z,98615.63
2023-04-17T20:55:21.469Z,98620.34
2023-04-17T20:57:48.960Z,98622.00
2023-04-17T21:00:16.726Z,98621.91
2023-04-17T21:02:45.148Z,98615.25
2023-04-17T21:05:12.687Z,98616.28
2023-04-17T21:07:40.195Z,98622.94
2023-04-17T21:10:08.484Z,98610.09
2023-04-17T21:12:36.108Z,98614.03
2023-04-17T21:15:03.798Z,98615.66
2023-04-17T21:17:31.253Z,98611.03
2023-04-17T21:19:58.798Z,98615.59
2023-04-17T21:22:26.262Z,98610.88
2023-04-17T21:24:53.862Z,98612.03
2023-04-17T21:27:21.561Z,98616.31
2023-04-17T21:29:49.226Z,98615.16
2023-04-17T21:32:16.664Z,98620.44
2023-04-17T21:34:44.175Z,98622.03
2023-04-17T21:37:11.557Z,98614.38
2023-04-17T21:39:39.051Z,98608.09
2023-04-17T21:42:06.505Z,98606.09
2023-04-17T21:44:33.966Z,98609.19
2023-04-17T21:47:01.435Z,98607.56
2023-04-17T21:49:28.900Z,98607.38
2023-04-17T21:51:57.278Z,98608.84
2023-04-17T21:54:26.911Z,98615.31
2023-04-17T21:56:54.471Z,98615.16
2023-04-17T21:59:21.927Z,98611.84
2023-04-17T22:01:49.494Z,98614.59
2023-04-17T22:04:17.120Z,98605.81
2023-04-17T22:06:44.600Z,98613.59
2023-04-17T22:09:12.892Z,98611.13
2023-04-17T22:11:41.313Z,98614.13
2023-04-17T22:14:08.825Z,98609.59
2023-04-17T22:16:36.542Z,98610.25
2023-04-17T22:19:04.048Z,98613.03
2023-04-17T22:21:31.603Z,98611.06
2023-04-17T22:23:59.522Z,98608.97
2023-04-17T22:26:27.176Z,98612.16
2023-04-17T22:28:54.731Z,98607.97
2023-04-17T22:31:22.217Z,98619.56
2023-04-17T22:33:49.688Z,98608.97
2023-04-17T22:36:17.253Z,98618.47
2023-04-17T22:38:44.652Z,98615.25
2023-04-17T22:41:12.150Z,98611.78
2023-04-17T22:43:39.673Z,98607.16
2023-04-17T22:46:07.196Z,98616.38
2023-04-17T22:48:35.149Z,98608.94
2023-04-17T22:51:02.692Z,98617.38
2023-04-17T22:53:31.565Z,98618.03
2023-04-17T22:56:06.494Z,98616.97
2023-04-17T22:58:34.371Z,98611.06
2023-04-17T23:01:01.921Z,98613.38
2023-04-17T23:03:29.701Z,98612.72
2023-04-17T23:05:57.453Z,98616.69
2023-04-17T23:08:24.896Z,98613.22
2023-04-17T23:11:02.006Z,98615.75
2023-04-17T23:13:31.624Z,98615.16
2023-04-17T23:15:59.137Z,98617.00
2023-04-17T23:18:26.644Z,98612.22
2023-04-17T23:20:54.117Z,98614.78
2023-04-17T23:23:21.690Z,98617.44
2023-04-17T23:25:49.304Z,98612.78
2023-04-17T23:28:16.820Z,98616.25
2023-04-17T23:30:44.253Z,98615.06
2023-04-17T23:33:11.953Z,98606.63
2023-04-17T23:35:39.469Z,98612.13
2023-04-17T23:38:07.002Z,98610.50
2023-04-17T23:40:35.026Z,98611.84
2023-04-17T23:43:02.571Z,98613.16
2023-04-17T23:45:30.056Z,98608.94
2023-04-17T23:47:57.824Z,98612.88
2023-04-17T23:50:26.117Z,98608.84
2023-04-17T23:52:55.000Z,98609.84
2023-04-17T23:55:23.325Z,98604.81
2023-04-17T23:57:50.836Z,98604.94
